Dai2kousei — JD2542 — position and weather

sailwx.info

Track history (hours):
 
Tides and Currents Weather Stations Pressure Air Temp Water Temp Dewpoint Dewpoint Depression Visibility Wind Speed Wind Dir Waves Ship Positions

Dai2kousei

Last reported at 2017-Jun-20 13:30 UTC. Time now 2017-Jun-23 00:15 UTC.
Position N 35°08' E 139°43'.

Length 77 m; draft 4.7 m.

MMSI: 431000467.

Date/timePositionNaut miles runAvg speedWind from/ knotsBaromVisibWave heightAir tempDewpointWater temp
2017-Jun-20 13:30N 35°08' E 139°43'510.9
2017-Jun-20 13:01N 35°13' E 139°46'510.2
2017-Jun-20 12:30N 35°18' E 139°44'510.3
2017-Jun-20 12:01N 35°23' E 139°42'510.1
2017-Jun-20 11:30N 35°27' E 139°47'510.6
2017-Jun-20 11:01N 35°30' E 139°52'12 0.4
2017-Jun-19 06:44N 35°33' E 140°06'1 0.1
2017-Jun-18 21:17N 35°34' E 140°05'1 0.7
2017-Jun-18 19:50N 35°35' E 140°04'0 0.0
2017-Jun-18 13:44N 35°35' E 140°04'0 0.0
2017-Jun-18 13:30N 35°35' E 140°04'0 0.0
2017-Jun-18 10:44N 35°35' E 140°04'0 0.0
2017-Jun-18 10:30N 35°35' E 140°04'0 0.0
2017-Jun-18 09:31N 35°35' E 140°04'0 0.0
2017-Jun-18 08:45N 35°35' E 140°04'4 3.2
2017-Jun-18 07:27N 35°33' E 139°59'510.2
2017-Jun-18 07:00N 35°32' E 139°54'510.0
2017-Jun-18 06:31N 35°30' E 139°48'3 6.6
2017-Jun-18 06:00N 35°29' E 139°44'0 0.0
2017-Jun-18 05:30N 35°29' E 139°44'0 0.0
2017-Jun-18 05:01N 35°29' E 139°44'0 0.0
2017-Jun-18 04:30N 35°29' E 139°44'0 0.0
2017-Jun-18 04:01N 35°29' E 139°44'0 0.0
2017-Jun-18 03:30N 35°29' E 139°44'0 0.0
2017-Jun-18 03:01N 35°29' E 139°44'0 0.0
2017-Jun-18 02:30N 35°29' E 139°44'0 0.0
2017-Jun-18 02:01N 35°29' E 139°44'0 0.0
2017-Jun-18 01:30N 35°29' E 139°44'0 0.0
2017-Jun-18 01:01N 35°29' E 139°44'0 0.0
2017-Jun-18 00:31N 35°29' E 139°44'0 0.0
2017-Jun-18 00:00N 35°29' E 139°44'0 0.0
2017-Jun-17 23:31N 35°29' E 139°44'0 0.0
2017-Jun-17 23:01N 35°29' E 139°44'0 0.0
2017-Jun-17 22:31N 35°29' E 139°44'0 0.0
2017-Jun-17 22:00N 35°29' E 139°44'0 0.0
2017-Jun-17 21:31N 35°29' E 139°44'0 0.0
2017-Jun-17 21:00N 35°29' E 139°44'0 0.0
2017-Jun-17 20:31N 35°29' E 139°44'0 0.0
2017-Jun-17 20:01N 35°29' E 139°44'0 0.0
2017-Jun-17 19:30N 35°29' E 139°44'0 0.0
2017-Jun-17 19:01N 35°29' E 139°44'0 0.0
2017-Jun-17 18:30N 35°29' E 139°44'1 2.1
2017-Jun-17 18:00N 35°29' E 139°45'0 0.2
2017-Jun-17 17:31N 35°29' E 139°45'0 0.0
2017-Jun-17 17:01N 35°29' E 139°45'0 0.0
2017-Jun-17 16:31N 35°29' E 139°45'0 0.0
2017-Jun-17 16:01N 35°29' E 139°45'0 0.0
2017-Jun-17 15:31N 35°29' E 139°45'0 0.0
2017-Jun-17 15:01N 35°29' E 139°45'0 0.0
2017-Jun-17 14:30N 35°29' E 139°45'0 0.0
2017-Jun-17 13:30N 35°29' E 139°45'0 0.0
2017-Jun-17 13:00N 35°29' E 139°45'0 0.0
2017-Jun-17 12:31N 35°29' E 139°45'0 0.0
2017-Jun-17 12:01N 35°29' E 139°45'0 0.0
2017-Jun-17 11:31N 35°29' E 139°45'0 0.0
2017-Jun-17 11:01N 35°29' E 139°45'0 0.0
2017-Jun-17 10:31N 35°29' E 139°45'0 0.0
2017-Jun-17 10:00N 35°29' E 139°45'0 0.0
2017-Jun-17 09:31N 35°29' E 139°45'0 0.0
2017-Jun-17 09:01N 35°29' E 139°45'0 0.0
2017-Jun-17 08:31N 35°29' E 139°45'0 0.0
2017-Jun-17 08:01N 35°29' E 139°45'0 0.0
2017-Jun-17 07:31N 35°29' E 139°45'0 0.0
2017-Jun-17 07:00N 35°29' E 139°45'1 1.9
2017-Jun-17 06:30N 35°29' E 139°47'611.8
2017-Jun-17 06:01N 35°31' E 139°53'9 0.8
2017-Jun-16 18:48N 35°34' E 140°03'0 0.0
2017-Jun-16 18:21N 35°34' E 140°03'1 0.1
2017-Jun-16 10:36N 35°34' E 140°02'410.5
2017-Jun-16 10:12N 35°33' E 139°58'211.0
2017-Jun-16 10:00N 35°32' E 139°55'611.1
2017-Jun-16 09:31N 35°30' E 139°49'4 7.4
2017-Jun-16 09:00N 35°29' E 139°44'0 0.0
2017-Jun-16 08:31N 35°29' E 139°44'0 0.0
2017-Jun-16 08:01N 35°29' E 139°44'0 0.0
2017-Jun-16 07:31N 35°29' E 139°44'0 0.0
2017-Jun-16 07:00N 35°29' E 139°44'0 0.0
2017-Jun-16 06:30N 35°29' E 139°44'0 0.0
2017-Jun-16 06:00N 35°29' E 139°44'0 0.0
2017-Jun-16 05:31N 35°29' E 139°44'0 0.0
2017-Jun-16 05:00N 35°29' E 139°44'0 0.0
2017-Jun-16 04:30N 35°29' E 139°44'0 0.0
2017-Jun-16 04:00N 35°29' E 139°44'0 0.0
2017-Jun-16 03:30N 35°29' E 139°44'0 0.0
2017-Jun-16 03:00N 35°29' E 139°44'0 0.0
2017-Jun-16 02:31N 35°29' E 139°44'1 2.5
2017-Jun-16 02:01N 35°29' E 139°46'0 0.4
2017-Jun-16 01:30N 35°29' E 139°46'0 0.0
2017-Jun-16 01:00N 35°29' E 139°46'0 0.0
2017-Jun-16 00:31N 35°29' E 139°46'0 0.1
2017-Jun-16 00:00N 35°29' E 139°46'0 0.0
2017-Jun-15 23:31N 35°29' E 139°46'0 0.0
2017-Jun-15 23:01N 35°29' E 139°46'0 0.0
2017-Jun-15 22:30N 35°29' E 139°46'0 0.0
2017-Jun-15 22:01N 35°29' E 139°46'0 0.0
2017-Jun-15 21:31N 35°29' E 139°46'0 0.0
2017-Jun-15 21:01N 35°29' E 139°46'0 0.0
2017-Jun-15 20:30N 35°29' E 139°46'0 0.0
2017-Jun-15 20:00N 35°29' E 139°46'0 0.0
2017-Jun-15 19:31N 35°29' E 139°46'0 0.0
2017-Jun-15 19:00N 35°29' E 139°46'0 0.0
2017-Jun-15 18:31N 35°29' E 139°46'0 0.0
2017-Jun-15 18:00N 35°29' E 139°46'0 0.0
2017-Jun-15 17:30N 35°29' E 139°46'0 0.0
2017-Jun-15 17:01N 35°29' E 139°46'0 0.0
2017-Jun-15 16:30N 35°29' E 139°46'0 0.0
2017-Jun-15 16:00N 35°29' E 139°46'0 0.0
2017-Jun-15 15:31N 35°29' E 139°46'0 0.0
2017-Jun-15 15:00N 35°29' E 139°46'0 0.0
2017-Jun-15 14:01N 35°29' E 139°46'0 0.0
2017-Jun-15 13:30N 35°29' E 139°46'0 0.3
2017-Jun-15 13:01N 35°29' E 139°45'1 2.1
2017-Jun-15 12:31N 35°29' E 139°44'0 0.0
2017-Jun-15 12:00N 35°29' E 139°44'0 0.0
2017-Jun-15 11:31N 35°29' E 139°44'0 0.0
2017-Jun-15 11:01N 35°29' E 139°44'0 0.0
2017-Jun-15 10:31N 35°29' E 139°44'0 0.0
2017-Jun-15 10:01N 35°29' E 139°44'0 0.0
2017-Jun-15 09:30N 35°29' E 139°44'0 0.0
2017-Jun-15 09:01N 35°29' E 139°44'0 0.5
2017-Jun-15 08:31N 35°29' E 139°45'5 9.2
2017-Jun-15 08:00N 35°31' E 139°50'510.5
2017-Jun-15 07:29N 35°32' E 139°56'5 0.5
2017-Jun-14 21:17N 35°36' E 140°01'310.6
2017-Jun-14 21:01N 35°38' E 139°59'2 0.9
2017-Jun-14 18:22N 35°41' E 139°59'0 0.0
2017-Jun-14 17:43N 35°41' E 139°59'0 0.0
2017-Jun-14 17:13N 35°41' E 139°59'0 0.0
2017-Jun-13 15:10N 35°41' E 139°59'0 0.0
2017-Jun-13 14:55N 35°41' E 139°59'3 0.6
2017-Jun-13 10:18N 35°38' E 139°59'310.4
2017-Jun-13 10:00N 35°35' E 139°57'510.7
2017-Jun-13 09:30N 35°32' E 139°52'510.5
2017-Jun-13 09:01N 35°29' E 139°46'2 3.7
2017-Jun-13 08:30N 35°29' E 139°44'0 0.0
2017-Jun-13 08:01N 35°29' E 139°44'0 0.0
2017-Jun-13 07:23N 35°29' E 139°44'0 0.0
2017-Jun-13 07:01N 35°29' E 139°44'0 0.0
2017-Jun-13 06:24N 35°29' E 139°44'0 0.0
2017-Jun-13 05:49N 35°29' E 139°44'0 0.0
2017-Jun-13 05:30N 35°29' E 139°44'7 9.7
2017-Jun-13 04:44N 35°23' E 139°39'718.0
2017-Jun-13 04:19N 35°29' E 139°44'0 0.0
2017-Jun-13 03:53N 35°29' E 139°44'0 0.0
2017-Jun-13 03:05N 35°29' E 139°44'0 0.0
2017-Jun-13 02:56N 35°29' E 139°44'0 0.0
2017-Jun-13 02:31N 35°29' E 139°44'0 0.0
2017-Jun-13 01:59N 35°29' E 139°44'0 0.0
2017-Jun-13 01:30N 35°29' E 139°44'0 0.0
2017-Jun-13 00:55N 35°29' E 139°44'0 0.0
2017-Jun-13 00:18N 35°29' E 139°44'0 0.0
2017-Jun-12 23:58N 35°29' E 139°44'0 0.0
2017-Jun-12 23:30N 35°29' E 139°44'0 0.0
2017-Jun-12 22:51N 35°29' E 139°44'0 0.0
2017-Jun-12 22:27N 35°29' E 139°44'0 0.0
2017-Jun-12 22:01N 35°29' E 139°44'0 0.0
2017-Jun-12 21:30N 35°29' E 139°44'0 0.0
2017-Jun-12 21:00N 35°29' E 139°44'0 0.0
2017-Jun-12 20:31N 35°29' E 139°44'0 0.0
2017-Jun-12 20:01N 35°29' E 139°44'0 0.0
2017-Jun-12 19:31N 35°29' E 139°44'0 0.0
2017-Jun-12 19:00N 35°29' E 139°44'0 0.0
2017-Jun-12 18:31N 35°29' E 139°44'0 0.0
2017-Jun-12 18:01N 35°29' E 139°44'0 0.0
2017-Jun-12 17:31N 35°29' E 139°44'0 0.0
2017-Jun-12 17:00N 35°29' E 139°44'0 0.0
2017-Jun-12 16:31N 35°29' E 139°44'0 0.0
2017-Jun-12 16:01N 35°29' E 139°44'0 0.0
2017-Jun-12 15:30N 35°29' E 139°44'0 0.0
2017-Jun-12 15:01N 35°29' E 139°44'0 0.0
2017-Jun-12 14:00N 35°29' E 139°44'0 0.0
2017-Jun-12 13:30N 35°29' E 139°44'0 0.0
2017-Jun-12 13:00N 35°29' E 139°44'0 0.0
2017-Jun-12 12:30N 35°29' E 139°44'0 0.0
2017-Jun-12 12:00N 35°29' E 139°44'0 0.0
2017-Jun-12 11:31N 35°29' E 139°44'0 0.0
2017-Jun-12 11:01N 35°29' E 139°44'0 0.2
2017-Jun-12 10:31N 35°29' E 139°44'  
Track history (hours):
 
Tides and Currents Weather Stations Pressure Air Temp Water Temp Dewpoint Dewpoint Depression Visibility Wind Speed Wind Dir Waves Ship Positions

Dai2kousei

Last reported at 2017-Jun-20 13:30 UTC. Time now 2017-Jun-23 00:15 UTC.
Position N 35°08' E 139°43'.

Length 77 m; draft 4.7 m.

MMSI: 431000467.

Date/timePositionNaut miles runAvg speedWind from/ knotsBaromVisibWave heightAir tempDewpointWater temp
2017-Jun-20 13:30N 35°08' E 139°43'510.9
2017-Jun-20 13:01N 35°13' E 139°46'510.2
2017-Jun-20 12:30N 35°18' E 139°44'510.3
2017-Jun-20 12:01N 35°23' E 139°42'510.1
2017-Jun-20 11:30N 35°27' E 139°47'510.6
2017-Jun-20 11:01N 35°30' E 139°52'12 0.4
2017-Jun-19 06:44N 35°33' E 140°06'1 0.1
2017-Jun-18 21:17N 35°34' E 140°05'1 0.7
2017-Jun-18 19:50N 35°35' E 140°04'0 0.0
2017-Jun-18 13:44N 35°35' E 140°04'0 0.0
2017-Jun-18 13:30N 35°35' E 140°04'0 0.0
2017-Jun-18 10:44N 35°35' E 140°04'0 0.0
2017-Jun-18 10:30N 35°35' E 140°04'0 0.0
2017-Jun-18 09:31N 35°35' E 140°04'0 0.0
2017-Jun-18 08:45N 35°35' E 140°04'4 3.2
2017-Jun-18 07:27N 35°33' E 139°59'510.2
2017-Jun-18 07:00N 35°32' E 139°54'510.0
2017-Jun-18 06:31N 35°30' E 139°48'3 6.6
2017-Jun-18 06:00N 35°29' E 139°44'0 0.0
2017-Jun-18 05:30N 35°29' E 139°44'0 0.0
2017-Jun-18 05:01N 35°29' E 139°44'0 0.0
2017-Jun-18 04:30N 35°29' E 139°44'0 0.0
2017-Jun-18 04:01N 35°29' E 139°44'0 0.0
2017-Jun-18 03:30N 35°29' E 139°44'0 0.0
2017-Jun-18 03:01N 35°29' E 139°44'0 0.0
2017-Jun-18 02:30N 35°29' E 139°44'0 0.0
2017-Jun-18 02:01N 35°29' E 139°44'0 0.0
2017-Jun-18 01:30N 35°29' E 139°44'0 0.0
2017-Jun-18 01:01N 35°29' E 139°44'0 0.0
2017-Jun-18 00:31N 35°29' E 139°44'0 0.0
2017-Jun-18 00:00N 35°29' E 139°44'0 0.0
2017-Jun-17 23:31N 35°29' E 139°44'0 0.0
2017-Jun-17 23:01N 35°29' E 139°44'0 0.0
2017-Jun-17 22:31N 35°29' E 139°44'0 0.0
2017-Jun-17 22:00N 35°29' E 139°44'0 0.0
2017-Jun-17 21:31N 35°29' E 139°44'0 0.0
2017-Jun-17 21:00N 35°29' E 139°44'0 0.0
2017-Jun-17 20:31N 35°29' E 139°44'0 0.0
2017-Jun-17 20:01N 35°29' E 139°44'0 0.0
2017-Jun-17 19:30N 35°29' E 139°44'0 0.0
2017-Jun-17 19:01N 35°29' E 139°44'0 0.0
2017-Jun-17 18:30N 35°29' E 139°44'1 2.1
2017-Jun-17 18:00N 35°29' E 139°45'0 0.2
2017-Jun-17 17:31N 35°29' E 139°45'0 0.0
2017-Jun-17 17:01N 35°29' E 139°45'0 0.0
2017-Jun-17 16:31N 35°29' E 139°45'0 0.0
2017-Jun-17 16:01N 35°29' E 139°45'0 0.0
2017-Jun-17 15:31N 35°29' E 139°45'0 0.0
2017-Jun-17 15:01N 35°29' E 139°45'0 0.0
2017-Jun-17 14:30N 35°29' E 139°45'0 0.0
2017-Jun-17 13:30N 35°29' E 139°45'0 0.0
2017-Jun-17 13:00N 35°29' E 139°45'0 0.0
2017-Jun-17 12:31N 35°29' E 139°45'0 0.0
2017-Jun-17 12:01N 35°29' E 139°45'0 0.0
2017-Jun-17 11:31N 35°29' E 139°45'0 0.0
2017-Jun-17 11:01N 35°29' E 139°45'0 0.0
2017-Jun-17 10:31N 35°29' E 139°45'0 0.0
2017-Jun-17 10:00N 35°29' E 139°45'0 0.0
2017-Jun-17 09:31N 35°29' E 139°45'0 0.0
2017-Jun-17 09:01N 35°29' E 139°45'0 0.0
2017-Jun-17 08:31N 35°29' E 139°45'0 0.0
2017-Jun-17 08:01N 35°29' E 139°45'0 0.0
2017-Jun-17 07:31N 35°29' E 139°45'0 0.0
2017-Jun-17 07:00N 35°29' E 139°45'1 1.9
2017-Jun-17 06:30N 35°29' E 139°47'611.8
2017-Jun-17 06:01N 35°31' E 139°53'9 0.8
2017-Jun-16 18:48N 35°34' E 140°03'0 0.0
2017-Jun-16 18:21N 35°34' E 140°03'1 0.1
2017-Jun-16 10:36N 35°34' E 140°02'410.5
2017-Jun-16 10:12N 35°33' E 139°58'211.0
2017-Jun-16 10:00N 35°32' E 139°55'611.1
2017-Jun-16 09:31N 35°30' E 139°49'4 7.4
2017-Jun-16 09:00N 35°29' E 139°44'0 0.0
2017-Jun-16 08:31N 35°29' E 139°44'0 0.0
2017-Jun-16 08:01N 35°29' E 139°44'0 0.0
2017-Jun-16 07:31N 35°29' E 139°44'0 0.0
2017-Jun-16 07:00N 35°29' E 139°44'0 0.0
2017-Jun-16 06:30N 35°29' E 139°44'0 0.0
2017-Jun-16 06:00N 35°29' E 139°44'0 0.0
2017-Jun-16 05:31N 35°29' E 139°44'0 0.0
2017-Jun-16 05:00N 35°29' E 139°44'0 0.0
2017-Jun-16 04:30N 35°29' E 139°44'0 0.0
2017-Jun-16 04:00N 35°29' E 139°44'0 0.0
2017-Jun-16 03:30N 35°29' E 139°44'0 0.0
2017-Jun-16 03:00N 35°29' E 139°44'0 0.0
2017-Jun-16 02:31N 35°29' E 139°44'1 2.5
2017-Jun-16 02:01N 35°29' E 139°46'0 0.4
2017-Jun-16 01:30N 35°29' E 139°46'0 0.0
2017-Jun-16 01:00N 35°29' E 139°46'0 0.0
2017-Jun-16 00:31N 35°29' E 139°46'0 0.1
2017-Jun-16 00:00N 35°29' E 139°46'0 0.0
2017-Jun-15 23:31N 35°29' E 139°46'0 0.0
2017-Jun-15 23:01N 35°29' E 139°46'0 0.0
2017-Jun-15 22:30N 35°29' E 139°46'0 0.0
2017-Jun-15 22:01N 35°29' E 139°46'0 0.0
2017-Jun-15 21:31N 35°29' E 139°46'0 0.0
2017-Jun-15 21:01N 35°29' E 139°46'0 0.0
2017-Jun-15 20:30N 35°29' E 139°46'0 0.0
2017-Jun-15 20:00N 35°29' E 139°46'0 0.0
2017-Jun-15 19:31N 35°29' E 139°46'0 0.0
2017-Jun-15 19:00N 35°29' E 139°46'0 0.0
2017-Jun-15 18:31N 35°29' E 139°46'0 0.0
2017-Jun-15 18:00N 35°29' E 139°46'0 0.0
2017-Jun-15 17:30N 35°29' E 139°46'0 0.0
2017-Jun-15 17:01N 35°29' E 139°46'0 0.0
2017-Jun-15 16:30N 35°29' E 139°46'0 0.0
2017-Jun-15 16:00N 35°29' E 139°46'0 0.0
2017-Jun-15 15:31N 35°29' E 139°46'0 0.0
2017-Jun-15 15:00N 35°29' E 139°46'0 0.0
2017-Jun-15 14:01N 35°29' E 139°46'0 0.0
2017-Jun-15 13:30N 35°29' E 139°46'0 0.3
2017-Jun-15 13:01N 35°29' E 139°45'1 2.1
2017-Jun-15 12:31N 35°29' E 139°44'0 0.0
2017-Jun-15 12:00N 35°29' E 139°44'0 0.0
2017-Jun-15 11:31N 35°29' E 139°44'0 0.0
2017-Jun-15 11:01N 35°29' E 139°44'0 0.0
2017-Jun-15 10:31N 35°29' E 139°44'0 0.0
2017-Jun-15 10:01N 35°29' E 139°44'0 0.0
2017-Jun-15 09:30N 35°29' E 139°44'0 0.0
2017-Jun-15 09:01N 35°29' E 139°44'0 0.5
2017-Jun-15 08:31N 35°29' E 139°45'5 9.2
2017-Jun-15 08:00N 35°31' E 139°50'510.5
2017-Jun-15 07:29N 35°32' E 139°56'5 0.5
2017-Jun-14 21:17N 35°36' E 140°01'310.6
2017-Jun-14 21:01N 35°38' E 139°59'2 0.9
2017-Jun-14 18:22N 35°41' E 139°59'0 0.0
2017-Jun-14 17:43N 35°41' E 139°59'0 0.0
2017-Jun-14 17:13N 35°41' E 139°59'0 0.0
2017-Jun-13 15:10N 35°41' E 139°59'0 0.0
2017-Jun-13 14:55N 35°41' E 139°59'3 0.6
2017-Jun-13 10:18N 35°38' E 139°59'310.4
2017-Jun-13 10:00N 35°35' E 139°57'510.7
2017-Jun-13 09:30N 35°32' E 139°52'510.5
2017-Jun-13 09:01N 35°29' E 139°46'2 3.7
2017-Jun-13 08:30N 35°29' E 139°44'0 0.0
2017-Jun-13 08:01N 35°29' E 139°44'0 0.0
2017-Jun-13 07:23N 35°29' E 139°44'0 0.0
2017-Jun-13 07:01N 35°29' E 139°44'0 0.0
2017-Jun-13 06:24N 35°29' E 139°44'0 0.0
2017-Jun-13 05:49N 35°29' E 139°44'0 0.0
2017-Jun-13 05:30N 35°29' E 139°44'7 9.7
2017-Jun-13 04:44N 35°23' E 139°39'718.0
2017-Jun-13 04:19N 35°29' E 139°44'0 0.0
2017-Jun-13 03:53N 35°29' E 139°44'0 0.0
2017-Jun-13 03:05N 35°29' E 139°44'0 0.0
2017-Jun-13 02:56N 35°29' E 139°44'0 0.0
2017-Jun-13 02:31N 35°29' E 139°44'0 0.0
2017-Jun-13 01:59N 35°29' E 139°44'0 0.0
2017-Jun-13 01:30N 35°29' E 139°44'0 0.0
2017-Jun-13 00:55N 35°29' E 139°44'0 0.0
2017-Jun-13 00:18N 35°29' E 139°44'0 0.0
2017-Jun-12 23:58N 35°29' E 139°44'0 0.0
2017-Jun-12 23:30N 35°29' E 139°44'0 0.0
2017-Jun-12 22:51N 35°29' E 139°44'0 0.0
2017-Jun-12 22:27N 35°29' E 139°44'0 0.0
2017-Jun-12 22:01N 35°29' E 139°44'0 0.0
2017-Jun-12 21:30N 35°29' E 139°44'0 0.0
2017-Jun-12 21:00N 35°29' E 139°44'0 0.0
2017-Jun-12 20:31N 35°29' E 139°44'0 0.0
2017-Jun-12 20:01N 35°29' E 139°44'0 0.0
2017-Jun-12 19:31N 35°29' E 139°44'0 0.0
2017-Jun-12 19:00N 35°29' E 139°44'0 0.0
2017-Jun-12 18:31N 35°29' E 139°44'0 0.0
2017-Jun-12 18:01N 35°29' E 139°44'0 0.0
2017-Jun-12 17:31N 35°29' E 139°44'0 0.0
2017-Jun-12 17:00N 35°29' E 139°44'0 0.0
2017-Jun-12 16:31N 35°29' E 139°44'0 0.0
2017-Jun-12 16:01N 35°29' E 139°44'0 0.0
2017-Jun-12 15:30N 35°29' E 139°44'0 0.0
2017-Jun-12 15:01N 35°29' E 139°44'0 0.0
2017-Jun-12 14:00N 35°29' E 139°44'0 0.0
2017-Jun-12 13:30N 35°29' E 139°44'0 0.0
2017-Jun-12 13:00N 35°29' E 139°44'0 0.0
2017-Jun-12 12:30N 35°29' E 139°44'0 0.0
2017-Jun-12 12:00N 35°29' E 139°44'0 0.0
2017-Jun-12 11:31N 35°29' E 139°44'0 0.0
2017-Jun-12 11:01N 35°29' E 139°44'0 0.2
2017-Jun-12 10:31N 35°29' E 139°44'  

Dump ship's entire track history